Ghent, NY (12075)

6:24 AM EDT on June 02, 2015 (GMT -0400)
Chatham NY Weather Observation Club | | Change Station
CLOSE
Current Station
Personal Weather Station
Location: Chatham, NY
Elevation: 480 ft
Nearby Weather Stations

Elev 480 ft 42.36 °N, 73.60 °W | Updated 20 seconds ago

Overcast
Overcast
47.5 °F
Feels Like 48 °F
N
1.2
Wind Variable Wind from North
Gusts 0.0 mph

Today
High -- | Low -- °F
--% Chance of Precip.
Yesterday
High -- | Low -- °F
Precip. -- in
5:20 AM 8:25 PM
Full, 100% visible
Pressure 30.13 in
Visibility 8.0 miles
Clouds Few 1600 ft
Scattered Clouds 3400 ft
Overcast 4200 ft
Windchill 48 °F
Dew Point 46 °F
Humidity 96%
Rainfall 0.11 in
Snow Depth Not available.
UV 0 out of 12
Pollen 1.00 out of 12
Air Quality Not available.
Flu Activity Sporadic
METAR KPSF 020954Z AUTO 06004KT 8SM -RA FEW016 SCT034 OVC042 07/06 A3014 RMK AO2 SLP202 P0005 T00670056

More Conditions Fewer Conditions

Pressure 30.13 in
Visibility 8.0 miles
Clouds Few 1600 ft
Scattered Clouds 3400 ft
Overcast 4200 ft
Windchill 48 °F
Dew Point 46 °F
Humidity 96%
Rainfall 0.11 in
Snow Depth Not available.
UV 0 out of 12
Pollen 1.00 out of 12
Air Quality Not available.
Flu Activity Sporadic
METAR KPSF 020954Z AUTO 06004KT 8SM -RA FEW016 SCT034 OVC042 07/06 A3014 RMK AO2 SLP202 P0005 T00670056

More Conditions Fewer Conditions

10-Day Weather Forecast

Almanac

Astronomy

Jun. 02, 2015 Rise Set
Actual Time
Civil Twilight
Nautical Twilight
Astronomical Twilight
Moon
Length of Visible Light
Length of Day
Tomorrow will be .
, % of the Moon is Illuminated

Today's Extremes

State Highs State Lows

Community

WunderPhotos

Upload Photos

1,825,902 photos uploaded!

WunderBlogs® & News

Nearby

Air Quality

  Air Quality AQ Index Pollutant
Not available.

Snow Depth

Station Depth Elevation

Earthquake Activity

City Distance Mag. Time & Date
Minimum magnitude displayed is 2.5.

Coastal Water Temperatures

Place Temperature

Stations

Nearby Weather Stations

Station Location Temp. Windchill Dew Point Humidity Wind Precip. Elev Updated Type